Time;durP1;ratioP1;P1;durP2;ratioP2;P2;SDS_P1;SDS_P2;PMS_P1;PMS_P2;Temp;Humidity;BMP_temperature;BMP_pressure;BME280_temperature;BME280_humidity;BME280_pressure;Samples;Min_cycle;Max_cycle;Signal;HPM_P1;HPM_P2
2024/01/11 00:02:19;;;;;;;6.60;5.50;;;;;;;;;;5072224;28;20588;-38
2024/01/11 00:04:48;;;;;;;6.53;4.93;;;;;;;;;;5056613;28;20048;-33
2024/01/11 00:07:14;;;;;;;6.50;5.22;;;18.60;72.30;;;;;;5052257;28;20094;-36
2024/01/11 00:09:42;;;;;;;6.50;5.30;;;18.60;41.50;;;;;;5052351;28;20052;-33
2024/01/11 00:12:09;;;;;;;6.15;5.20;;;;;;;;;;5062115;28;20094;-37
2024/01/11 00:14:36;;;;;;;6.47;5.50;;;19.00;71.70;;;;;;5072001;28;20045;-28
2024/01/11 00:17:03;;;;;;;6.47;4.90;;;;;;;;;;5072182;28;20052;-28
2024/01/11 00:19:30;;;;;;;5.00;4.30;;;18.60;46.40;;;;;;5071927;28;20110;-28
2024/01/11 00:21:58;;;;;;;5.90;4.70;;;18.70;72.10;;;;;;5070719;28;20072;-28
2024/01/11 00:24:25;;;;;;;5.78;4.88;;;;;;;;;;5071918;28;20098;-30
2024/01/11 00:26:52;;;;;;;6.05;4.95;;;;;;;;;;5071617;28;20059;-29
2024/01/11 00:29:19;;;;;;;5.82;5.03;;;;;;;;;;5071352;28;20049;-28
2024/01/11 00:31:47;;;;;;;5.88;4.78;;;;;;;;;;5071865;28;20055;-29
2024/01/11 00:34:14;;;;;;;6.35;5.25;;;;;;;;;;5071751;28;20048;-28
2024/01/11 00:36:41;;;;;;;6.53;4.88;;;;;;;;;;5063866;28;20077;-28
2024/01/11 00:39:11;;;;;;;5.32;4.80;;;19.00;41.20;;;;;;5051493;28;20114;-28
2024/01/11 00:41:38;;;;;;;6.05;5.10;;;;;;;;;;5051808;28;20052;-28
2024/01/11 00:44:05;;;;;;;5.88;4.97;;;19.10;71.10;;;;;;5051821;28;20072;-28
2024/01/11 00:46:33;;;;;;;5.93;5.18;;;;;;;;;;5051821;28;20056;-28
2024/01/11 00:49:00;;;;;;;5.72;4.68;;;;;;;;;;5051918;28;20048;-29
2024/01/11 00:51:27;;;;;;;5.43;4.55;;;;;;;;;;5051382;28;20052;-30
2024/01/11 00:53:54;;;;;;;5.85;4.72;;;;;;;;;;5065981;28;20094;-28
2024/01/11 00:56:23;;;;;;;5.78;4.90;;;;;;;;;;5071475;28;20059;-29
2024/01/11 00:58:49;;;;;;;6.32;5.25;;;19.40;71.30;;;;;;5072066;28;20173;-28
2024/01/11 01:01:17;;;;;;;6.47;5.03;;;;;;;;;;5071577;28;20456;-28
2024/01/11 01:03:44;;;;;;;6.28;4.90;;;;;;;;;;5071445;28;20421;-28
2024/01/11 01:06:11;;;;;;;7.03;5.10;;;;;;;;;;5071513;28;20125;-29
2024/01/11 01:08:38;;;;;;;6.43;5.10;;;;;;;;;;5071102;28;20052;-28
2024/01/11 01:11:05;;;;;;;6.55;5.20;;;;;;;;;;5053151;28;20045;-29
2024/01/11 01:13:33;;;;;;;12.93;5.60;;;19.50;39.10;;;;;;5071354;28;20052;-28
2024/01/11 01:16:00;;;;;;;7.70;5.60;;;;;;;;;;5071411;28;20049;-28
2024/01/11 01:18:28;;;;;;;5.95;5.00;;;;;;;;;;5071454;28;20040;-32
2024/01/11 01:20:55;;;;;;;6.68;5.32;;;;;;;;;;5071346;28;20098;-28
2024/01/11 01:23:22;;;;;;;6.07;5.10;;;;;;;;;;5071051;28;20080;-29
2024/01/11 01:25:50;;;;;;;6.38;5.00;;;;;;;;;;5069051;28;20094;-28
2024/01/11 01:28:17;;;;;;;6.05;5.20;;;;;;;;;;5051461;28;20049;-29
2024/01/11 01:30:45;;;;;;;7.55;5.85;;;19.60;40.50;;;;;;5051348;28;20115;-30
2024/01/11 01:33:12;;;;;;;6.82;5.15;;;;;;;;;;5050868;28;20044;-31
2024/01/11 01:35:39;;;;;;;5.93;5.00;;;;;;;;;;5051003;28;20460;-29
2024/01/11 01:38:06;;;;;;;5.45;4.85;;;;;;;;;;5069468;28;20052;-29
2024/01/11 01:40:33;;;;;;;7.18;5.80;;;;;;;;;;5072115;28;20114;-28
2024/01/11 01:43:01;;;;;;;7.18;5.60;;;;;;;;;;5063730;28;20049;-30
2024/01/11 01:45:28;;;;;;;6.47;5.20;;;;;;;;;;5054842;28;20053;-28
2024/01/11 01:47:57;;;;;;;6.65;5.40;;;;;;;;;;5054881;28;20476;-28
2024/01/11 01:50:24;;;;;;;5.90;4.90;;;;;;;;;;5054861;28;20494;-28
2024/01/11 01:52:51;;;;;;;6.45;5.35;;;;;;;;;;5067268;28;20106;-29
2024/01/11 01:55:19;;;;;;;6.88;5.40;;;;;;;;;;5074660;28;20059;-28
2024/01/11 01:57:46;;;;;;;6.55;5.40;;;19.60;70.40;;;;;;5074808;28;20044;-28
2024/01/11 02:00:13;;;;;;;6.75;5.53;;;;;;;;;;5070419;28;20394;-30
2024/01/11 02:02:41;;;;;;;7.03;5.40;;;;;;;;;;5074385;28;20504;-33
2024/01/11 02:05:09;;;;;;;6.28;5.13;;;19.70;39.80;;;;;;5075071;28;20519;-34
2024/01/11 02:07:36;;;;;;;5.88;4.80;;;;;;;;;;5074436;28;20053;-36
2024/01/11 02:10:03;;;;;;;6.72;5.45;;;;;;;;;;5074496;28;20448;-32
2024/01/11 02:12:30;;;;;;;7.18;5.50;;;;;;;;;;5074238;28;20051;-33
2024/01/11 02:14:57;;;;;;;8.30;5.93;;;19.80;52.50;;;;;;5071665;28;20064;-32
2024/01/11 02:17:24;;;;;;;7.78;5.40;;;;;;;;;;5054587;28;20449;-33
2024/01/11 02:19:51;;;;;;;7.40;5.40;;;;;;;;;;5053266;28;20102;-33
2024/01/11 02:22:22;;;;;;;7.30;5.72;;;;;;;;;;5054517;28;20041;-33
2024/01/11 02:24:50;;;;;;;6.80;5.50;;;19.70;40.30;;;;;;5054128;28;20048;-34
2024/01/11 02:27:17;;;;;;;6.85;5.88;;;;;;;;;;5054199;28;20056;-34
2024/01/11 02:29:44;;;;;;;6.72;5.60;;;;;;;;;;5053833;28;20053;-34
2024/01/11 02:32:11;;;;;;;7.35;5.32;;;;;;;;;;5054063;28;20095;-33
2024/01/11 02:34:39;;;;;;;6.97;5.55;;;;;;;;;;5054396;28;20057;-35
2024/01/11 02:37:06;;;;;;;8.27;5.57;;;;;;;;;;5063842;28;20170;-36
2024/01/11 02:39:33;;;;;;;6.35;5.50;;;;;;;;;;5073913;28;20090;-34
2024/01/11 02:42:01;;;;;;;6.57;5.10;;;;;;;;;;5073966;28;20067;-31
2024/01/11 02:44:29;;;;;;;7.47;5.80;;;;;;;;;;5070575;28;20438;-33
2024/01/11 02:46:56;;;;;;;6.50;5.55;;;;;;;;;;5053833;28;20096;-35
2024/01/11 02:49:23;;;;;;;7.45;5.97;;;;;;;;;;5068799;28;20048;-36
2024/01/11 02:51:50;;;;;;;7.80;5.82;;;;;;;;;;5073013;28;20102;-33
2024/01/11 02:54:17;;;;;;;6.50;5.63;;;;;;;;;;5073410;28;20048;-37
2024/01/11 02:56:44;;;;;;;6.35;5.43;;;;;;;;;;5073407;28;20611;-37
2024/01/11 02:59:13;;;;;;;6.82;5.60;;;;;;;;;;5073674;28;20070;-35
2024/01/11 03:01:40;;;;;;;6.53;5.40;;;;;;;;;;5071921;28;20421;-35
2024/01/11 03:04:07;;;;;;;5.60;5.00;;;;;;;;;;5053344;28;20517;-36
2024/01/11 03:06:34;;;;;;;6.82;5.60;;;;;;;;;;5054412;28;20044;-38
2024/01/11 03:09:02;;;;;;;6.85;5.70;;;;;;;;;;5068535;28;20052;-35
2024/01/11 03:11:29;;;;;;;6.57;5.55;;;;;;;;;;5073219;28;20052;-34
2024/01/11 03:13:56;;;;;;;7.72;5.80;;;;;;;;;;5073275;28;20082;-33
2024/01/11 03:16:25;;;;;;;6.80;5.95;;;;;;;;;;5073237;28;20133;-31
2024/01/11 03:18:52;;;;;;;6.78;5.80;;;;;;;;;;5060662;28;20048;-33
2024/01/11 03:21:19;;;;;;;7.05;5.50;;;;;;;;;;5053313;28;20186;-34
2024/01/11 03:23:46;;;;;;;6.82;5.55;;;;;;;;;;5052821;28;20049;-31
2024/01/11 03:26:14;;;;;;;6.53;5.50;;;19.80;38.60;;;;;;5053287;28;20057;-34
2024/01/11 03:28:41;;;;;;;7.35;6.00;;;;;;;;;;5052930;28;20056;-34
2024/01/11 03:31:09;;;;;;;6.88;5.88;;;;;;;;;;5053116;28;20057;-34
2024/01/11 03:33:37;;;;;;;6.72;5.45;;;;;;;;;;5056891;28;20041;-31
2024/01/11 03:36:08;;;;;;;6.07;5.25;;;;;;;;;;5072331;28;20129;-33
2024/01/11 03:38:35;;;;;;;6.18;5.18;;;19.30;69.80;;;;;;5072843;28;20113;-36
2024/01/11 03:41:02;;;;;;;7.15;6.03;;;;;;;;;;5072692;28;20056;-32
2024/01/11 03:43:29;;;;;;;7.38;5.68;;;;;;;;;;5072559;28;20563;-34
2024/01/11 03:45:56;;;;;;;6.93;6.18;;;;;;;;;;5072761;28;20060;-34
2024/01/11 03:48:23;;;;;;;7.07;5.60;;;;;;;;;;5072696;28;20102;-35
2024/01/11 03:50:52;;;;;;;6.68;5.78;;;;;;;;;;5059195;28;20052;-36
2024/01/11 03:53:19;;;;;;;6.70;5.60;;;;;;;;;;5052198;28;20098;-35
2024/01/11 03:55:46;;;;;;;6.82;5.80;;;;;;;;;;5052596;28;20485;-37
2024/01/11 03:58:14;;;;;;;7.97;6.50;;;;;;;;;;5052435;28;20049;-32
2024/01/11 04:00:41;;;;;;;7.57;6.43;;;;;;;;;;5052311;28;20053;-33
2024/01/11 04:03:08;;;;;;;9.02;6.28;;;;;;;;;;5052142;28;20095;-35
2024/01/11 04:05:35;;;;;;;6.32;5.68;;;;;;;;;;5052823;28;20045;-33
2024/01/11 04:08:06;;;;;;;7.68;5.80;;;19.90;39.90;;;;;;5052717;28;20056;-35
2024/01/11 04:10:33;;;;;;;6.35;4.97;;;;;;;;;;5052435;28;20432;-28
2024/01/11 04:13:00;;;;;;;6.60;5.55;;;;;;;;;;5069400;28;20128;-27
2024/01/11 04:15:27;;;;;;;8.55;5.80;;;;;;;;;;5071963;28;20128;-28
2024/01/11 04:17:55;;;;;;;7.93;6.13;;;;;;;;;;5072132;28;20098;-28
2024/01/11 04:20:23;;;;;;;6.97;5.68;;;;;;;;;;5072342;28;20056;-28
2024/01/11 04:22:50;;;;;;;7.05;5.80;;;;;;;;;;5067125;28;20493;-28
2024/01/11 04:25:20;;;;;;;6.28;5.25;;;;;;;;;;5051589;28;20053;-29
2024/01/11 04:27:47;;;;;;;7.45;5.90;;;;;;;;;;5052236;28;20513;-28
2024/01/11 04:30:14;;;;;;;7.68;5.93;;;;;;;;;;5051995;28;20110;-27
2024/01/11 04:32:41;;;;;;;6.28;5.47;;;;;;;;;;5051530;28;20056;-30
2024/01/11 04:35:10;;;;;;;8.20;6.10;;;;;;;;;;5051811;28;20041;-28
2024/01/11 04:37:37;;;;;;;6.68;5.75;;;;;;;;;;5065591;28;20108;-27
2024/01/11 04:40:04;;;;;;;7.03;5.80;;;;;;;;;;5066768;28;20181;-29
2024/01/11 04:42:33;;;;;;;6.28;5.63;;;;;;;;;;5071467;28;20508;-28
2024/01/11 04:45:00;;;;;;;7.43;5.93;;;;;;;;;;5071619;28;20048;-28
2024/01/11 04:47:28;;;;;;;6.97;5.90;;;;;;;;;;5071866;28;20409;-28
2024/01/11 04:49:55;;;;;;;6.20;5.18;;;;;;;;;;5071718;28;20048;-28
2024/01/11 04:52:22;;;;;;;7.03;5.93;;;;;;;;;;5071555;28;20048;-27
2024/01/11 04:54:49;;;;;;;7.88;6.13;;;;;;;;;;5070993;28;20098;-28
2024/01/11 04:57:16;;;;;;;7.18;5.90;;;;;;;;;;5051285;28;20075;-31
2024/01/11 04:59:44;;;;;;;7.10;5.93;;;19.90;39.80;;;;;;5051453;28;20060;-28
2024/01/11 05:02:11;;;;;;;6.25;5.38;;;;;;;;;;5051549;28;20494;-28
2024/01/11 05:04:39;;;;;;;6.63;5.70;;;;;;;;;;5051422;28;20099;-31
2024/01/11 05:07:05;;;;;;;6.78;5.35;;;20.00;56.30;;;;;;5051501;28;20049;-27
2024/01/11 05:09:32;;;;;;;7.18;5.78;;;;;;;;;;5050987;28;20567;-31
2024/01/11 05:12:00;;;;;;;7.90;6.63;;;;;;;;;;5060415;28;20052;-29
2024/01/11 05:14:27;;;;;;;8.75;6.63;;;;;;;;;;5071354;28;20049;-31
2024/01/11 05:16:55;;;;;;;7.47;5.90;;;19.90;39.80;;;;;;5074464;28;20045;-28
2024/01/11 05:19:22;;;;;;;7.07;5.40;;;;;;;;;;5075666;28;20057;-27
2024/01/11 05:21:49;;;;;;;6.93;5.65;;;;;;;;;;5072703;28;20497;-29
2024/01/11 05:24:16;;;;;;;7.25;5.80;;;;;;;;;;5055252;28;20052;-27
2024/01/11 05:26:43;;;;;;;7.57;6.03;;;;;;;;;;5054989;28;20106;-28
2024/01/11 05:29:11;;;;;;;7.47;5.70;;;;;;;;;;5055170;28;20045;-28
2024/01/11 05:31:38;;;;;;;6.78;6.00;;;;;;;;;;5055460;28;20052;-28
2024/01/11 05:34:06;;;;;;;6.50;5.57;;;19.90;39.70;;;;;;5055074;28;20076;-29
2024/01/11 05:36:33;;;;;;;7.25;5.43;;;;;;;;;;5060077;28;20052;-31
2024/01/11 05:39:00;;;;;;;7.00;5.90;;;;;;;;;;5074580;28;20052;-32
2024/01/11 05:41:28;;;;;;;7.28;5.55;;;;;;;;;;5075620;28;20504;-32
2024/01/11 05:43:55;;;;;;;6.70;5.95;;;;;;;;;;5074755;28;20049;-29
2024/01/11 05:46:22;;;;;;;7.25;5.90;;;;;;;;;;5075110;28;20075;-28
2024/01/11 05:48:49;;;;;;;7.05;5.80;;;;;;;;;;5074854;28;20041;-28
2024/01/11 05:51:18;;;;;;;6.72;5.78;;;;;;;;;;5074787;28;20048;-28
2024/01/11 05:53:45;;;;;;;6.00;5.40;;;;;;;;;;5074432;28;20052;-28
2024/01/11 05:56:12;;;;;;;6.43;5.70;;;;;;;;;;5057202;28;20053;-29
2024/01/11 05:58:40;;;;;;;7.35;5.90;;;;;;;;;;5067832;28;20451;-28
2024/01/11 06:01:07;;;;;;;6.63;5.72;;;20.00;52.40;;;;;;5074820;28;20461;-28
2024/01/11 06:03:34;;;;;;;6.50;5.70;;;;;;;;;;5074504;28;20056;-29
2024/01/11 06:06:01;;;;;;;6.72;5.80;;;;;;;;;;5074466;28;20056;-28
2024/01/11 06:08:30;;;;;;;6.72;5.10;;;;;;;;;;5074580;28;20075;-30
2024/01/11 06:10:57;;;;;;;6.82;5.63;;;;;;;;;;5073074;28;20045;-28
2024/01/11 06:13:24;;;;;;;6.60;5.38;;;;;;;;;;5063532;28;20103;-38
2024/01/11 06:15:51;;;;;;;7.50;5.93;;;;;;;;;;5054221;28;20049;-37
2024/01/11 06:18:19;;;;;;;6.90;5.78;;;;;;;;;;5054479;28;20099;-31
2024/01/11 06:20:46;;;;;;;6.78;5.80;;;;;;;;;;5054175;28;20083;-32
2024/01/11 06:23:13;;;;;;;6.90;5.80;;;;;;;;;;5054123;28;20457;-34
2024/01/11 06:25:41;;;;;;;6.93;5.85;;;20.00;39.70;;;;;;5054223;28;20052;-35
2024/01/11 06:28:09;;;;;;;6.10;5.40;;;;;;;;;;5060506;28;20041;-37
2024/01/11 06:30:37;;;;;;;6.50;5.20;;;;;;;;;;5074483;28;20127;-36
2024/01/11 06:33:04;;;;;;;7.50;5.95;;;;;;;;;;5073772;28;20162;-35
2024/01/11 06:35:32;;;;;;;6.80;5.90;;;;;;;;;;5074065;28;20045;-31
2024/01/11 06:37:59;;;;;;;6.80;5.57;;;;;;;;;;5073593;28;20052;-34
2024/01/11 06:40:25;;;;;;;5.93;5.10;;;19.90;70.10;;;;;;5074121;28;20181;-33
2024/01/11 06:42:54;;;;;;;7.07;5.25;;;19.90;39.70;;;;;;5073839;28;20044;-35
2024/01/11 06:45:21;;;;;;;7.35;6.28;;;;;;;;;;5060332;28;20409;-35
2024/01/11 06:47:48;;;;;;;6.45;5.57;;;;;;;;;;5053905;28;20099;-31
2024/01/11 06:50:16;;;;;;;6.78;5.70;;;;;;;;;;5053886;28;20057;-33
2024/01/11 06:52:43;;;;;;;6.57;5.65;;;;;;;;;;5053593;28;20053;-34
2024/01/11 06:55:10;;;;;;;7.07;5.38;;;;;;;;;;5053709;28;20399;-31
2024/01/11 06:57:38;;;;;;;5.82;5.10;;;;;;;;;;5053890;28;20049;-36
2024/01/11 07:00:08;;;;;;;7.15;5.72;;;19.90;39.70;;;;;;5054595;28;20083;-34
2024/01/11 07:02:35;;;;;;;6.30;5.25;;;19.90;69.70;;;;;;5053448;28;20498;-36
2024/01/11 07:05:02;;;;;;;6.80;5.50;;;;;;;;;;5053360;28;20100;-33
2024/01/11 07:07:29;;;;;;;5.88;5.10;;;;;;;;;;5053673;28;20052;-35
2024/01/11 07:09:56;;;;;;;6.07;5.35;;;;;;;;;;5053808;28;20449;-30
2024/01/11 07:12:23;;;;;;;6.35;5.10;;;;;;;;;;5065471;28;20520;-33
2024/01/11 07:14:51;;;;;;;6.95;5.35;;;;;;;;;;5072452;28;20074;-34
2024/01/11 07:17:19;;;;;;;6.82;5.53;;;20.00;39.70;;;;;;5070676;28;20049;-34
2024/01/11 07:19:46;;;;;;;6.78;5.55;;;;;;;;;;5063369;28;20129;-34
2024/01/11 07:22:13;;;;;;;7.28;5.38;;;;;;;;;;5073405;28;20052;-34
2024/01/11 07:24:40;;;;;;;6.40;5.05;;;;;;;;;;5057930;28;20502;-31
2024/01/11 07:27:08;;;;;;;5.88;4.90;;;;;;;;;;5053036;28;20053;-36
2024/01/11 07:29:35;;;;;;;6.15;5.32;;;;;;;;;;5059564;28;20106;-30
2024/01/11 07:32:03;;;;;;;5.43;4.53;;;;;;;;;;5068973;28;20078;-34
2024/01/11 07:34:31;;;;;;;6.38;5.20;;;20.00;39.80;;;;;;5073218;28;20056;-37
2024/01/11 07:36:59;;;;;;;6.88;5.20;;;;;;;;;;5072567;28;20060;-36
2024/01/11 07:39:26;;;;;;;6.57;5.22;;;;;;;;;;5071832;28;20094;-36
2024/01/11 07:41:53;;;;;;;6.75;5.40;;;;;;;;;;5066947;28;20107;-36
2024/01/11 07:44:21;;;;;;;5.43;4.78;;;;;;;;;;5053022;28;20072;-34
2024/01/11 07:46:48;;;;;;;6.13;5.38;;;;;;;;;;5053158;28;20052;-37
2024/01/11 07:49:15;;;;;;;5.88;4.95;;;;;;;;;;5053196;28;20056;-36
2024/01/11 07:51:43;;;;;;;6.18;5.28;;;;;;;;;;5052776;28;20052;-34
2024/01/11 07:54:10;;;;;;;6.40;5.13;;;19.50;69.30;;;;;;5065800;28;20106;-35
2024/01/11 07:56:37;;;;;;;7.22;5.30;;;;;;;;;;5072474;28;20057;-28
2024/01/11 07:59:04;;;;;;;5.97;5.18;;;20.10;69.90;;;;;;5072711;28;20045;-28
2024/01/11 08:01:32;;;;;;;8.13;5.03;;;;;;;;;;5072385;28;20076;-29
2024/01/11 08:04:01;;;;;;;6.22;5.03;;;19.50;69.20;;;;;;5072527;28;20103;-28
2024/01/11 08:06:28;;;;;;;7.18;5.40;;;;;;;;;;5072411;28;20056;-28
2024/01/11 08:08:56;;;;;;;6.60;4.95;;;20.20;39.40;;;;;;5072419;28;20052;-28
2024/01/11 08:11:23;;;;;;;6.85;5.07;;;;;;;;;;5070186;28;20452;-28
2024/01/11 08:13:51;;;;;;;6.72;4.70;;;;;;;;;;5052199;28;20098;-28
2024/01/11 08:16:19;;;;;;;8.70;4.65;;;20.20;69.90;;;;;;5052213;28;20049;-28
2024/01/11 08:18:48;;;;;;;7.25;5.47;;;;;;;;;;5052506;28;20456;-29
2024/01/11 08:21:15;;;;;;;7.88;4.72;;;;;;;;;;5052346;28;20044;-28
2024/01/11 08:23:44;;;;;;;7.25;4.70;;;;;;;;;;5051868;28;20053;-31
2024/01/11 08:26:13;;;;;;;6.47;5.35;;;20.40;39.60;;;;;;5060551;28;20123;-28
2024/01/11 08:28:40;;;;;;;6.97;4.80;;;;;;;;;;5060334;28;20140;-31
2024/01/11 08:31:08;;;;;;;6.65;4.75;;;;;;;;;;5062415;28;20386;-28
2024/01/11 08:33:36;;;;;;;7.15;4.68;;;;;;;;;;5066846;28;20507;-28
2024/01/11 08:36:03;;;;;;;6.22;4.82;;;;;;;;;;5065524;28;20044;-28
2024/01/11 08:38:31;;;;;;;5.15;4.47;;;;;;;;;;5062210;28;20053;-31
2024/01/11 08:40:59;;;;;;;4.72;4.20;;;;;;;;;;5052286;28;20053;-28
2024/01/11 08:43:27;;;;;;;4.80;3.97;;;20.60;39.30;;;;;;5051816;28;20049;-28
2024/01/11 08:45:55;;;;;;;5.22;4.40;;;;;;;;;;5055445;28;20127;-28
2024/01/11 08:48:22;;;;;;;8.23;4.20;;;19.70;68.60;;;;;;5067627;28;20785;-28
2024/01/11 08:50:49;;;;;;;8.52;4.78;;;;;;;;;;5070791;28;20536;-27
2024/01/11 08:53:17;;;;;;;5.65;4.13;;;;;;;;;;5071610;28;20057;-28
2024/01/11 08:55:44;;;;;;;5.55;4.30;;;;;;;;;;5058383;28;20414;-28
2024/01/11 08:58:12;;;;;;;5.20;4.47;;;;;;;;;;5068663;28;20626;-28
2024/01/11 09:00:40;;;;;;;5.68;4.82;;;20.90;39.10;;;;;;5069510;28;20467;-28
2024/01/11 09:03:07;;;;;;;5.88;4.25;;;;;;;;;;5058139;28;20509;-28
2024/01/11 09:05:34;;;;;;;4.88;4.05;;;21.20;69.50;;;;;;5071353;28;20049;-28
2024/01/11 09:08:01;;;;;;;6.05;4.47;;;;;;;;;;5057992;28;20490;-28
2024/01/11 09:10:28;;;;;;;5.40;4.30;;;;;;;;;;5055613;28;20128;-28
2024/01/11 09:12:55;;;;;;;6.38;5.00;;;;;;;;;;5067326;28;20048;-28
2024/01/11 09:15:23;;;;;;;5.15;4.28;;;;;;;;;;5056631;28;20048;-28
2024/01/11 09:17:51;;;;;;;5.30;4.20;;;;;;;;;;5071304;28;20098;-28
2024/01/11 09:20:19;;;;;;;5.38;4.78;;;;;;;;;;5059603;28;20106;-29
2024/01/11 09:22:46;;;;;;;6.25;4.18;;;;;;;;;;5063064;28;20052;-28
2024/01/11 09:25:13;;;;;;;4.82;4.13;;;21.20;69.20;;;;;;5071385;28;20055;-28
2024/01/11 09:27:41;;;;;;;4.88;4.28;;;;;;;;;;5071589;28;20148;-30
2024/01/11 09:30:08;;;;;;;5.60;4.68;;;;;;;;;;5071332;28;20501;-28
2024/01/11 09:32:35;;;;;;;5.18;4.40;;;20.90;68.90;;;;;;5071334;28;20079;-29
2024/01/11 09:35:05;;;;;;;5.00;4.13;;;;;;;;;;5071331;28;20044;-32
2024/01/11 09:37:32;;;;;;;4.88;3.95;;;;;;;;;;5065143;28;20559;-33
2024/01/11 09:40:00;;;;;;;5.10;4.03;;;20.60;68.60;;;;;;5052620;28;20506;-30
2024/01/11 09:42:27;;;;;;;4.85;4.00;;;21.20;64.60;;;;;;5052277;28;20049;-30
2024/01/11 09:44:55;;;;;;;5.13;4.05;;;;;;;;;;5052255;28;20078;-29
2024/01/11 09:47:22;;;;;;;5.43;4.18;;;;;;;;;;5057811;28;20053;-28
2024/01/11 09:49:50;;;;;;;4.68;3.97;;;;;;;;;;5051559;28;20053;-29
2024/01/11 09:52:19;;;;;;;4.38;3.83;;;;;;;;;;5059206;28;20095;-30
2024/01/11 09:54:46;;;;;;;5.68;4.70;;;;;;;;;;5052362;28;20375;-29
2024/01/11 09:57:13;;;;;;;5.57;4.25;;;;;;;;;;5065875;28;20645;-28
2024/01/11 09:59:40;;;;;;;4.53;3.97;;;;;;;;;;5072207;28;20106;-29
2024/01/11 10:02:08;;;;;;;5.28;3.90;;;;;;;;;;5074371;28;20048;-29
2024/01/11 10:04:37;;;;;;;5.28;3.97;;;;;;;;;;5075877;28;20056;-29
2024/01/11 10:07:04;;;;;;;4.85;3.97;;;;;;;;;;5070125;28;20508;-30
2024/01/11 10:09:32;;;;;;;4.60;3.80;;;21.20;38.60;;;;;;5075741;28;20497;-28
2024/01/11 10:11:59;;;;;;;4.35;3.67;;;;;;;;;;5071699;28;20086;-28
2024/01/11 10:14:27;;;;;;;5.43;4.00;;;;;;;;;;5064411;28;20551;-28
2024/01/11 10:16:55;;;;;;;5.22;4.07;;;21.20;38.40;;;;;;5066133;28;20086;-32
2024/01/11 10:19:22;;;;;;;4.10;3.70;;;;;;;;;;5067194;28;20061;-32
2024/01/11 10:21:49;;;;;;;5.70;3.90;;;;;;;;;;5064127;28;20040;-28
2024/01/11 10:24:20;;;;;;;4.93;3.88;;;21.20;38.40;;;;;;5065164;28;20090;-31
2024/01/11 10:26:48;;;;;;;4.50;3.70;;;21.20;38.20;;;;;;5063473;28;20067;-28
2024/01/11 10:29:15;;;;;;;4.75;4.20;;;21.50;68.80;;;;;;5063100;28;20049;-29
2024/01/11 10:31:42;;;;;;;4.55;3.92;;;;;;;;;;5064004;28;20106;-28
2024/01/11 10:34:09;;;;;;;4.07;3.58;;;;;;;;;;5064484;28;20049;-28
2024/01/11 10:36:36;;;;;;;4.00;3.47;;;;;;;;;;5055962;28;20052;-32
2024/01/11 10:39:05;;;;;;;4.43;3.60;;;;;;;;;;5060383;28;20559;-28
2024/01/11 10:41:33;;;;;;;4.50;3.65;;;21.30;38.50;;;;;;5064038;28;20052;-30
2024/01/11 10:44:02;;;;;;;4.90;3.80;;;21.20;38.60;;;;;;5063886;28;20103;-29
2024/01/11 10:46:29;;;;;;;4.95;3.90;;;;;;;;;;5053286;28;20052;-32
2024/01/11 10:48:57;;;;;;;4.97;3.97;;;21.20;38.00;;;;;;5053455;28;20099;-37
2024/01/11 10:51:25;;;;;;;4.22;3.50;;;;;;;;;;5058931;28;20076;-34
2024/01/11 10:53:53;;;;;;;4.65;3.70;;;;;;;;;;5062092;28;20045;-33
2024/01/11 10:56:20;;;;;;;5.40;3.60;;;;;;;;;;5062033;28;20057;-33
2024/01/11 10:58:47;;;;;;;4.38;3.50;;;;;;;;;;5063840;28;20438;-31
2024/01/11 11:01:15;;;;;;;4.35;3.63;;;21.30;38.20;;;;;;5061801;28;20059;-36
2024/01/11 11:03:43;;;;;;;3.85;3.40;;;;;;;;;;5064289;28;20094;-33
2024/01/11 11:06:11;;;;;;;4.00;3.60;;;;;;;;;;5063155;28;20119;-34
2024/01/11 11:08:39;;;;;;;3.95;3.55;;;;;;;;;;5062053;28;20502;-34
2024/01/11 11:11:07;;;;;;;3.80;3.40;;;;;;;;;;5064082;28;20051;-33
2024/01/11 11:13:35;;;;;;;3.80;3.05;;;;;;;;;;5063610;28;20091;-33
2024/01/11 11:16:03;;;;;;;4.05;3.50;;;21.20;68.70;;;;;;5062986;28;20549;-33
2024/01/11 11:18:31;;;;;;;3.95;3.17;;;21.30;69.40;;;;;;5058580;28;20049;-36
2024/01/11 11:20:58;;;;;;;4.07;3.42;;;21.20;69.00;;;;;;5058642;28;20090;-37
2024/01/11 11:23:26;;;;;;;3.75;3.10;;;;;;;;;;5053128;28;20055;-34
2024/01/11 11:25:53;;;;;;;4.80;3.30;;;;;;;;;;5054926;28;20057;-34
2024/01/11 11:28:20;;;;;;;5.43;3.13;;;21.30;38.40;;;;;;5073166;28;20056;-32
2024/01/11 11:30:49;;;;;;;4.05;3.33;;;;;;;;;;5064654;28;20098;-29
2024/01/11 11:33:18;;;;;;;3.78;3.10;;;;;;;;;;5061015;28;20041;-29
2024/01/11 11:35:46;;;;;;;3.80;3.15;;;;;;;;;;5060980;28;20489;-29
2024/01/11 11:38:18;;;;;;;4.47;3.33;;;;;;;;;;5060650;28;20768;-28
2024/01/11 11:40:45;;;;;;;3.53;2.83;;;;;;;;;;5052678;28;20075;-28
2024/01/11 11:43:13;;;;;;;5.13;3.00;;;;;;;;;;5052115;28;20049;-30
2024/01/11 11:45:41;;;;;;;3.72;2.80;;;;;;;;;;5052514;28;20041;-29
2024/01/11 11:48:23;;;;;;;3.03;2.65;;;;;;;;;;5052345;28;20459;-28
2024/01/11 11:51:01;;;;;;;3.25;2.80;;;21.40;38.90;;;;;;5052192;28;20041;-29
2024/01/11 11:53:29;;;;;;;3.63;2.90;;;;;;;;;;5056267;28;20436;-28
2024/01/11 11:55:56;;;;;;;4.72;2.97;;;21.30;69.10;;;;;;5051954;28;20071;-34
2024/01/11 11:58:23;;;;;;;3.13;2.50;;;;;;;;;;5057466;28;20045;-31
2024/01/11 12:00:50;;;;;;;3.33;2.53;;;;;;;;;;5060722;28;20075;-36
2024/01/11 12:03:17;;;;;;;3.63;2.85;;;;;;;;;;5060506;28;20052;-36
2024/01/11 12:05:44;;;;;;;3.70;2.75;;;;;;;;;;5061082;28;20094;-36
2024/01/11 12:08:13;;;;;;;3.30;2.80;;;;;;;;;;5062050;28;20048;-30
2024/01/11 12:10:41;;;;;;;3.20;2.70;;;;;;;;;;5062171;28;20052;-28
2024/01/11 12:13:08;;;;;;;3.50;2.80;;;;;;;;;;5066279;28;20460;-29
2024/01/11 12:15:35;;;;;;;3.22;2.67;;;;;;;;;;5072365;28;20052;-30
2024/01/11 12:18:02;;;;;;;4.10;2.88;;;;;;;;;;5072451;28;20055;-28
2024/01/11 12:20:30;;;;;;;3.58;2.72;;;21.40;38.30;;;;;;5071501;28;20452;-28
2024/01/11 12:22:57;;;;;;;3.38;2.88;;;;;;;;;;5063820;28;20127;-28
2024/01/11 12:25:25;;;;;;;3.33;2.70;;;;;;;;;;5061501;28;20079;-30
2024/01/11 12:27:53;;;;;;;2.80;2.45;;;;;;;;;;5060164;28;20045;-28
2024/01/11 12:30:20;;;;;;;3.55;2.80;;;;;;;;;;5058403;28;20094;-29
2024/01/11 12:32:47;;;;;;;3.17;2.55;;;;;;;;;;5057128;28;20041;-29
2024/01/11 12:35:14;;;;;;;3.55;2.67;;;21.30;67.20;;;;;;5059764;28;20040;-29
2024/01/11 12:37:41;;;;;;;4.57;3.03;;;;;;;;;;5060022;28;20040;-28
2024/01/11 12:40:10;;;;;;;3.00;2.50;;;;;;;;;;5060287;28;20041;-29
2024/01/11 12:42:39;;;;;;;3.30;2.55;;;21.50;38.20;;;;;;5063395;28;20055;-28
2024/01/11 12:45:06;;;;;;;3.55;2.70;;;;;;;;;;5071683;28;20477;-34
2024/01/11 12:47:33;;;;;;;3.00;2.42;;;21.50;69.70;;;;;;5071898;28;20048;-37
2024/01/11 12:50:00;;;;;;;3.42;2.63;;;;;;;;;;5071194;28;20086;-37
2024/01/11 12:52:30;;;;;;;4.68;2.63;;;;;;;;;;5071687;28;20501;-35
2024/01/11 12:54:57;;;;;;;3.40;2.53;;;;;;;;;;5071699;28;20040;-32
2024/01/11 12:57:25;;;;;;;3.58;2.90;;;;;;;;;;5071854;28;20052;-32
2024/01/11 12:59:53;;;;;;;4.05;2.75;;;21.40;39.20;;;;;;5071778;28;20559;-35
2024/01/11 13:02:20;;;;;;;3.00;2.40;;;;;;;;;;5067259;28;20045;-38
2024/01/11 13:04:48;;;;;;;4.88;2.60;;;;;;;;;;5051462;28;20060;-34
2024/01/11 13:07:15;;;;;;;2.95;2.50;;;;;;;;;;5056222;28;20063;-31
2024/01/11 13:09:42;;;;;;;3.85;2.63;;;;;;;;;;5062248;28;20048;-36
2024/01/11 13:12:10;;;;;;;4.22;2.75;;;;;;;;;;5069883;28;20444;-34
2024/01/11 13:14:39;;;;;;;4.18;2.65;;;;;;;;;;5065259;28;20048;-34
2024/01/11 13:17:08;;;;;;;4.93;2.70;;;21.40;39.00;;;;;;5058913;28;20421;-35
2024/01/11 13:19:35;;;;;;;3.53;2.60;;;;;;;;;;5060035;28;20133;-36
2024/01/11 13:22:02;;;;;;;7.53;3.10;;;;;;;;;;5058496;28;20051;-36
2024/01/11 13:24:29;;;;;;;6.05;3.33;;;;;;;;;;5061114;28;20052;-33
2024/01/11 13:26:57;;;;;;;3.20;2.60;;;;;;;;;;5061859;28;20045;-35
2024/01/11 13:29:24;;;;;;;4.35;2.75;;;;;;;;;;5062084;28;20390;-31
2024/01/11 13:31:51;;;;;;;3.67;2.85;;;;;;;;;;5061007;28;20099;-35
2024/01/11 13:34:20;;;;;;;3.00;2.60;;;;;;;;;;5059620;28;20183;-34
2024/01/11 13:36:47;;;;;;;3.63;2.40;;;;;;;;;;5053438;28;20045;-36
2024/01/11 13:39:14;;;;;;;3.30;2.60;;;;;;;;;;5064503;28;20040;-34
2024/01/11 13:41:42;;;;;;;6.68;2.50;;;;;;;;;;5062136;28;20444;-34
2024/01/11 13:44:09;;;;;;;3.08;2.28;;;;;;;;;;5063042;28;20420;-35
2024/01/11 13:46:36;;;;;;;3.38;2.60;;;;;;;;;;5064926;28;20049;-32
2024/01/11 13:49:04;;;;;;;3.30;2.30;;;21.40;69.20;;;;;;5063604;28;20095;-34
2024/01/11 13:51:33;;;;;;;3.95;2.65;;;;;;;;;;5061807;28;20052;-36
2024/01/11 13:54:00;;;;;;;4.25;2.70;;;;;;;;;;5062852;28;20040;-37
2024/01/11 13:56:28;;;;;;;3.72;2.95;;;;;;;;;;5068211;28;20049;-33
2024/01/11 13:58:55;;;;;;;7.03;2.67;;;;;;;;;;5074768;28;20409;-37
2024/01/11 14:01:22;;;;;;;4.25;2.55;;;21.00;69.40;;;;;;5074665;28;20048;-35
2024/01/11 14:03:49;;;;;;;2.88;2.38;;;;;;;;;;5074236;28;20052;-34
2024/01/11 14:06:16;;;;;;;6.25;2.28;;;;;;;;;;5074569;28;20052;-36
2024/01/11 14:08:45;;;;;;;4.25;2.40;;;;;;;;;;5074347;28;20053;-29
2024/01/11 14:11:12;;;;;;;3.72;2.63;;;;;;;;;;5070286;28;20044;-28
2024/01/11 14:13:40;;;;;;;3.20;2.58;;;;;;;;;;5074024;28;20057;-29
2024/01/11 14:16:07;;;;;;;2.85;2.45;;;;;;;;;;5074516;28;20178;-31
2024/01/11 14:18:34;;;;;;;3.47;2.70;;;;;;;;;;5074519;28;20052;-30
2024/01/11 14:21:01;;;;;;;5.03;2.42;;;;;;;;;;5074441;28;20082;-32